Big Otter, West Virginia
Current Conditions -  °F | °C
As of 12:54 PM on Monday 24 Nov 2014 (Local Time) from KCRW Reporting Station
Broken Clouds Broken Clouds  
Wind Chill: 72°   Ceiling: 7500
Heat Index: 72°   Visibility: 10mi
Dew Point: 40°   Wind: 29mph
Humidity: 31%   Direction: 240°WSW
Pressure: 29.52"   Gusts: 56mph
Location:  38.5245°N, 81.029°W
Report Text: KCRW 241754Z 24025G49KT 10SM BKN075 22/04 A2952 RMK AO2 PK WND 22049/1749 SLP990 T02220044 10228 20167 58001 $
Loading
Personal Weather Stations






























Interactive Weather Map New forecast layout! Learn more

10-Day Weather Forecast

Advertisements
Track Severe Weather on mobile